Map

Track Data

SID SEASON NUMBER BASIN SUBBASIN NAME ISO_TIME NATURE LAT LON WMO_WIND WMO_PRES WMO_AGENCY TRACK_TYPE DIST2LAND LANDFALL IFLAG USA_AGENCY USA_ATCF_ID USA_LAT USA_LON USA_RECORD USA_STATUS USA_WIND USA_PRES USA_SSHS USA_R34_NE USA_R34_SE USA_R34_SW USA_R34_NW USA_R50_NE USA_R50_SE USA_R50_SW USA_R50_NW USA_R64_NE USA_R64_SE USA_R64_SW USA_R64_NW USA_POCI USA_ROCI USA_RMW USA_EYE TOKYO_LAT TOKYO_LON TOKYO_GRADE TOKYO_WIND TOKYO_PRES TOKYO_R50_DIR TOKYO_R50_LONG TOKYO_R50_SHORT TOKYO_R30_DIR TOKYO_R30_LONG TOKYO_R30_SHORT TOKYO_LAND CMA_LAT CMA_LON CMA_CAT CMA_WIND CMA_PRES HKO_LAT HKO_LON HKO_CAT HKO_WIND HKO_PRES NEWDELHI_LAT NEWDELHI_LON NEWDELHI_GRADE NEWDELHI_WIND NEWDELHI_PRES NEWDELHI_CI NEWDELHI_DP NEWDELHI_POCI REUNION_LAT REUNION_LON REUNION_TYPE REUNION_WIND REUNION_PRES REUNION_TNUM REUNION_CI REUNION_RMW REUNION_R34_NE REUNION_R34_SE REUNION_R34_SW REUNION_R34_NW REUNION_R50_NE REUNION_R50_SE REUNION_R50_SW REUNION_R50_NW REUNION_R64_NE REUNION_R64_SE REUNION_R64_SW REUNION_R64_NW BOM_LAT BOM_LON BOM_TYPE BOM_WIND BOM_PRES BOM_TNUM BOM_CI BOM_RMW BOM_R34_NE BOM_R34_SE BOM_R34_SW BOM_R34_NW BOM_R50_NE BOM_R50_SE BOM_R50_SW BOM_R50_NW BOM_R64_NE BOM_R64_SE BOM_R64_SW BOM_R64_NW BOM_ROCI BOM_POCI BOM_EYE BOM_POS_METHOD BOM_PRES_METHOD NADI_LAT NADI_LON NADI_CAT NADI_WIND NADI_PRES WELLINGTON_LAT WELLINGTON_LON WELLINGTON_WIND WELLINGTON_PRES DS824_LAT DS824_LON DS824_STAGE DS824_WIND DS824_PRES TD9636_LAT TD9636_LON TD9636_STAGE TD9636_WIND TD9636_PRES TD9635_LAT TD9635_LON TD9635_WIND TD9635_PRES TD9635_ROCI NEUMANN_LAT NEUMANN_LON NEUMANN_CLASS NEUMANN_WIND NEUMANN_PRES MLC_LAT MLC_LON MLC_CLASS MLC_WIND MLC_PRES USA_GUST BOM_GUST BOM_GUST_PER REUNION_GUST REUNION_GUST_PER USA_SEAHGT USA_SEARAD_NE USA_SEARAD_SE USA_SEARAD_SW USA_SEARAD_NW STORM_SPEED STORM_DIR
1954314N11152 1954 90 WP MM SALLY 1954-11-10 00:00:00 TS 10.8000 151.800 main 1515 1502 O________OOO__ jtwc_wp WP181954 10.8000 151.800 25 -1 10.8000 151.800 TC 25 10.8000 151.800 1 25 10.8000 151.800 25 1004 60 15 274
1954314N11152 1954 90 WP MM SALLY 1954-11-10 03:00:00 TS 10.8474 151.049 main 1499 1494 P________PPP__ WP181954 10.8405 151.035 25 -1 10.8405 151.035 TC 25 10.8683 151.089 1 25 10.8405 151.035 25 1004 60 15 274
1954314N11152 1954 90 WP MM SALLY 1954-11-10 06:00:00 TS 10.9097 150.318 main 1491 1484 O________OPO__ jtwc_wp WP181954 10.9000 150.300 25 -1 10.9000 150.300 TC 25 10.9386 150.372 1 25 10.9000 150.300 25 1004 60 14 276
1954314N11152 1954 90 WP MM SALLY 1954-11-10 09:00:00 TS 10.9978 149.617 main 1487 1482 P________PPP__ WP181954 10.9922 149.607 25 -1 10.9922 149.607 TC 25 11.0147 149.645 1 25 10.9922 149.607 25 1004 60 14 278
1954314N11152 1954 90 WP MM SALLY 1954-11-10 12:00:00 TS 11.1000 148.900 main 1488 1484 O________OOO__ jtwc_wp WP181954 11.1000 148.900 25 -1 11.1000 148.900 TC 25 11.1000 148.900 1 25 11.1000 148.900 25 1004 60 15 278
1954314N11152 1954 90 WP MM SALLY 1954-11-10 15:00:00 TS 11.1991 148.114 main 1492 1490 P________PPP__ WP181954 11.2000 148.107 25 -1 11.2000 148.107 TC 25 11.1965 148.135 1 25 11.2000 148.107 25 1003 60 16 277
1954314N11152 1954 90 WP MM SALLY 1954-11-10 18:00:00 TS 11.2999 147.314 main 1501 1501 O________OPO__ jtwc_wp WP181954 11.3000 147.300 25 -1 11.3000 147.300 TC 25 11.2995 147.358 1 25 11.3000 147.300 25 1003 60 16 277
1954314N11152 1954 90 WP MM SALLY 1954-11-10 21:00:00 TS 11.4005 146.545 main 1512 1512 P________PPP__ WP181954 11.3998 146.535 25 -1 11.3998 146.535 TC 25 11.4028 146.576 1 25 11.3998 146.535 25 1003 60 15 278
1954314N11152 1954 90 WP MM SALLY 1954-11-11 00:00:00 TS 11.5000 145.800 main 1526 1526 O________OOO__ jtwc_wp WP181954 11.5000 145.800 25 -1 11.5000 145.800 TC 25 11.5000 145.800 1 25 11.5000 145.800 25 1003 60 14 278
1954314N11152 1954 90 WP MM SALLY 1954-11-11 03:00:00 TS 11.6007 145.092 main 1543 1543 P________PPP__ WP181954 11.6072 145.107 25 -1 11.6072 145.107 TC 25 11.5814 145.047 1 31 11.6072 145.107 25 1002 60 14 278
1954314N11152 1954 90 WP MM SALLY 1954-11-11 06:00:00 TS 11.6891 144.375 main 1565 1565 O________OPO__ jtwc_wp WP181954 11.7000 144.400 25 -1 11.7000 144.400 TC 25 11.6565 144.300 1 37 11.7000 144.400 25 1002 60 15 276
1954314N11152 1954 90 WP MM SALLY 1954-11-11 09:00:00 TS 11.7445 143.599 main 1581 1581 P________PPP__ WP181954 11.7499 143.615 37 0 11.7499 143.615 TC 37 11.7283 143.553 1 43 11.7499 143.615 37 1001 60 15 274
1954314N11152 1954 90 WP MM SALLY 1954-11-11 12:00:00 TS 11.8000 142.800 main 1585 1569 O________OOO__ jtwc_wp WP181954 11.8000 142.800 50 0 11.8000 142.800 TC 50 11.8000 142.800 2 50 11.8000 142.800 50 1000 60 16 275
1954314N11152 1954 90 WP MM SALLY 1954-11-11 15:00:00 TS 11.8945 142.000 main 1569 1553 P________PPP__ WP181954 11.8998 141.993 50 0 11.8998 141.993 TC 50 11.8787 142.024 2 50 11.8998 141.993 50 999 60 16 277
1954314N11152 1954 90 WP MM SALLY 1954-11-11 18:00:00 TS 11.9893 141.211 main 1549 1521 O________OPO__ jtwc_wp WP181954 12.0000 141.200 50 0 12.0000 141.200 TC 50 11.9570 141.243 2 50 12.0000 141.200 50 998 60 15 276
1954314N11152 1954 90 WP MM SALLY 1954-11-11 21:00:00 TS 12.0509 140.448 main 1528 1503 P________PPP__ WP181954 12.0572 140.442 50 0 12.0572 140.442 TC 50 12.0318 140.465 2 50 12.0572 140.442 50 996 90 15 274
1954314N11152 1954 90 WP MM SALLY 1954-11-12 00:00:00 TS 12.1000 139.700 main 1503 1436 O________OOO__ jtwc_wp WP181954 12.1000 139.700 50 0 12.1000 139.700 TC 50 12.1000 139.700 2 50 12.1000 139.700 50 995 120 15 274
1954314N11152 1954 90 WP MM SALLY 1954-11-12 03:00:00 TS 12.1504 138.949 main 1428 1364 P________PPP__ WP181954 12.1499 138.942 62 0 12.1499 138.942 TC 62 12.1522 138.968 2 56 12.1499 138.942 62 993 120 15 274
1954314N11152 1954 90 WP MM SALLY 1954-11-12 06:00:00 TS 12.1997 138.212 main 1354 1290 O________OPO__ jtwc_wp WP181954 12.2000 138.200 75 1 12.2000 138.200 TC 75 12.1988 138.250 2 62 12.2000 138.200 75 992 120 14 274
1954314N11152 1954 90 WP MM SALLY 1954-11-12 09:00:00 TS 12.2487 137.513 main 1280 1207 P________PPP__ WP181954 12.2496 137.507 75 1 12.2496 137.507 TC 75 12.2460 137.531 2 68 12.2496 137.507 75 990 150 14 274
1954314N11152 1954 90 WP MM SALLY 1954-11-12 12:00:00 TS 12.3000 136.800 main 1207 1131 O________OOO__ jtwc_wp WP181954 12.3000 136.800 75 1 12.3000 136.800 TC 75 12.3000 136.800 3 75 12.3000 136.800 75 988 180 15 274
1954314N11152 1954 90 WP MM SALLY 1954-11-12 15:00:00 TS 12.3538 136.011 main 1122 1048 P________PPP__ WP181954 12.3425 136.007 80 1 12.3425 136.007 TC 80 12.3880 136.024 3 81 12.3425 136.007 80 986 210 15 277
1954314N11152 1954 90 WP MM SALLY 1954-11-12 18:00:00 TS 12.4733 135.269 1006 tokyo main 1048 964 OOO______OPO__ jtwc_wp WP181954 12.4000 135.200 85 2 12.9000 135.800 2 1006 0 0 0 12.9000 135.700 1 29 1006 12.4000 135.200 TC 85 12.4799 135.236 3 87 12.4000 135.200 86 984 240 15 278
1954314N11152 1954 90 WP MM SALLY 1954-11-12 21:00:00 TS 12.5672 134.468 main 964 878 PPP______PPP__ WP181954 12.5072 134.450 92 2 12.7941 134.527 2 993 0 0 12.7212 134.544 1 58 993 12.5072 134.450 TC 92 12.5568 134.455 3 93 12.5072 134.450 93 981 270 16 275
1954314N11152 1954 90 WP MM SALLY 1954-11-13 00:00:00 TS 12.6136 133.632 980 tokyo main 868 783 OOO______OOO__ jtwc_wp WP181954 12.6000 133.700 100 3 12.7000 133.400 9 980 0 0 0 12.6000 133.500 5 87 980 12.6000 133.700 TC 100 12.6000 133.700 4 100 12.6000 133.700 100 979 300 16 272
1954314N11152 1954 90 WP MM SALLY 1954-11-13 03:00:00 TS 12.6133 132.791 main 783 709 PPP______PPP__ WP181954 12.6301 132.870 112 3 12.6345 132.530 9 975 0 0 12.5771 132.653 5 92 977 12.6301 132.870 TC 112 12.5776 132.951 4 106 12.6301 132.870 112 976 330 15 269
1954314N11152 1954 90 WP MM SALLY 1954-11-13 06:00:00 TS 12.5871 132.073 970 tokyo main 709 643 OOO______OPO__ jtwc_wp WP181954 12.6000 132.100 125 4 12.6000 131.900 9 970 0 0 0 12.6000 132.000 5 97 975 12.6000 132.100 TC 125 12.5224 132.237 4 112 12.6000 132.100 125 973 360 13 266
1954314N11152 1954 90 WP MM SALLY 1954-11-13 09:00:00 TS 12.5245 131.508 main 643 601 PPP______PPP__ WP181954 12.4997 131.497 125 4 12.5921 131.463 9 965 0 0 12.5996 131.513 5 101 972 12.4997 131.497 TC 125 12.4559 131.579 4 118 12.4997 131.497 125 968 360 10 263
1954314N11152 1954 90 WP MM SALLY 1954-11-13 12:00:00 TS 12.4667 131.033 960 tokyo main 590 549 OOO______OOO__ jtwc_wp WP181954 12.4000 131.000 125 4 12.6000 131.100 9 960 0 0 0 12.6000 131.100 6 106 970 12.4000 131.000 TC 125 12.4000 131.000 4 125 12.4000 131.000 125 963 360 10 266
1954314N11152 1954 90 WP MM SALLY 1954-11-13 15:00:00 TS 12.4519 130.535 main 538 497 PPP______PPP__ WP181954 12.3849 130.520 125 4 12.6001 130.600 9 960 0 0 12.6001 130.585 6 111 967 12.3849 130.520 TC 125 12.3567 130.464 4 131 12.3849 130.520 125 957 390 9 269
1954314N11152 1954 90 WP MM SALLY 1954-11-13 18:00:00 TS 12.4553 130.085 960 tokyo main 497 452 OOO______OPO__ jtwc_wp WP181954 12.4000 130.100 125 4 12.6000 130.100 9 960 0 0 0 12.6000 130.100 6 116 965 12.4000 130.100 TC 125 12.3320 130.013 4 137 12.4000 130.100 125 952 420 8 269
1954314N11152 1954 90 WP MM SALLY 1954-11-13 21:00:00 TS 12.4406 129.678 main 452 425 PPP______PPP__ WP181954 12.3775 129.697 137 5 12.5850 129.632 9 955 0 0 12.5850 129.690 6 121 960 12.3775 129.697 TC 137 12.3413 129.655 4 143 12.3775 129.697 137 947 360 7 271
1954314N11152 1954 90 WP MM SALLY 1954-11-14 00:00:00 TS 12.4667 129.383 950 tokyo main 425 404 OOO______OOO__ jtwc_wp WP181954 12.4000 129.400 150 5 12.6000 129.300 9 950 0 0 0 12.6000 129.400 6 126 955 12.4000 129.400 TC 150 12.4000 129.400 4 150 12.4000 129.400 150 943 300 4 288
1954314N11152 1954 90 WP MM SALLY 1954-11-14 03:00:00 TS 12.5804 129.244 main 404 404 PPP______PPP__ WP181954 12.5199 129.248 150 5 12.6849 129.190 9 937 0 0 12.6849 129.248 6 140 941 12.5199 129.248 TC 150 12.5527 129.282 4 150 12.5199 129.248 150 928 330 3 329
1954314N11152 1954 90 WP MM SALLY 1954-11-14 06:00:00 TS 12.7416 129.209 925 tokyo main 405 405 OOO______OPO__ jtwc_wp WP181954 12.7000 129.200 150 5 12.8000 129.200 9 925 0 0 0 12.8000 129.200 6 155 928 12.7000 129.200 TC 150 12.7494 129.255 4 150 12.7000 129.200 150 914 360 4 352
1954314N11152 1954 90 WP MM SALLY 1954-11-14 09:00:00 TS 12.9290 129.213 main 409 409 PPP______PPP__ WP181954 12.9375 129.207 150 5 12.9150 129.200 9 925 0 0 12.9000 129.207 6 150 929 12.9375 129.207 TC 150 12.9465 129.251 4 150 12.9375 129.207 150 917 330 3 355
1954314N11152 1954 90 WP MM SALLY 1954-11-14 12:00:00 TS 13.0667 129.200 925 tokyo main 414 403 OOO______OOO__ jtwc_wp WP181954 13.1000 129.200 150 5 13.0000 129.200 9 925 0 0 0 13.0000 129.200 6 145 931 13.1000 129.200 TC 150 13.1000 129.200 4 150 13.1000 129.200 150 921 300 2 317
1954314N11152 1954 90 WP MM SALLY 1954-11-14 15:00:00 TS 13.0489 129.098 main 401 379 PPP______PPP__ WP181954 13.0149 129.102 150 5 13.0149 129.195 9 925 0 0 13.1075 129.080 6 145 932 13.0149 129.102 TC 150 13.1261 129.003 4 150 13.0149 129.102 150 924 360 3 257
1954314N11152 1954 90 WP MM SALLY 1954-11-14 18:00:00 TS 13.0013 128.909 925 tokyo main 379 348 OOO______OPO__ jtwc_wp WP181954 12.9000 128.900 150 5 13.0000 129.100 9 925 0 0 0 13.2000 128.900 6 145 933 12.9000 128.900 TC 150 13.1077 128.752 4 150 12.9000 128.900 150 927 420 5 269
1954314N11152 1954 90 WP MM SALLY 1954-11-14 21:00:00 TS 13.0397 128.618 main 348 320 PPP______PPP__ WP181954 12.9701 128.558 150 5 12.9925 128.845 9 932 0 0 13.2500 128.715 6 140 934 12.9701 128.558 TC 150 13.0854 128.475 4 150 12.9701 128.558 150 930 390 6 281
1954314N11152 1954 90 WP MM SALLY 1954-11-15 00:00:00 TS 13.1167 128.300 940 tokyo main 320 303 OOO______OOO__ jtwc_wp WP181954 13.1000 128.200 150 5 13.0000 128.500 9 940 0 0 0 13.3000 128.500 6 136 936 13.1000 128.200 TC 150 13.1000 128.200 4 150 13.1000 128.200 150 933 360 6 286
1954314N11152 1954 90 WP MM SALLY 1954-11-15 03:00:00 TS 13.1930 128.056 main 303 278 PPP______PPP__ WP181954 13.1849 127.985 150 5 13.0126 128.135 9 940 0 0 13.3925 128.265 6 136 937 13.1849 127.985 TC 150 13.1986 127.984 4 150 13.1849 127.985 150 935 330 5 293
1954314N11152 1954 90 WP MM SALLY 1954-11-15 06:00:00 TS 13.3066 127.829 940 tokyo main 278 264 OOO______OPO__ jtwc_wp WP181954 13.3000 127.800 150 5 13.1000 127.800 9 940 0 0 0 13.5000 128.000 6 136 938 13.3000 127.800 TC 150 13.3397 127.772 4 150 13.3000 127.800 150 937 300 5 302
1954314N11152 1954 90 WP MM SALLY 1954-11-15 09:00:00 TS 13.4797 127.593 main 270 257 PPP______PPP__ WP181954 13.4849 127.572 150 5 13.3274 127.585 9 940 0 0 13.5850 127.707 6 136 935 13.4849 127.572 TC 150 13.5110 127.550 4 150 13.4849 127.572 150 934 300 6 308
1954314N11152 1954 90 WP MM SALLY 1954-11-15 12:00:00 TS 13.6833 127.333 940 tokyo main 257 249 OOO______OOO__ jtwc_wp WP181954 13.7000 127.300 150 5 13.6000 127.400 9 940 0 0 0 13.7000 127.400 6 136 932 13.7000 127.300 TC 150 13.7000 127.300 4 150 13.7000 127.300 150 932 300 7 306
1954314N11152 1954 90 WP MM SALLY 1954-11-15 15:00:00 TS 13.8746 127.027 main 249 241 PPP______PPP__ WP181954 13.9000 126.958 150 5 13.7999 127.172 9 940 0 0 13.8699 127.115 6 140 929 13.9000 126.958 TC 150 13.8776 127.000 4 150 13.9000 126.958 150 929 330 7 303
1954314N11152 1954 90 WP MM SALLY 1954-11-15 18:00:00 TS 14.0784 126.695 940 tokyo main 241 218 OOO______OPO__ jtwc_wp WP181954 14.1000 126.600 150 5 14.0000 126.900 9 940 0 0 0 14.1000 126.800 6 145 926 14.1000 126.600 TC 150 14.0701 126.672 4 150 14.1000 126.600 150 926 360 8 303
1954314N11152 1954 90 WP MM SALLY 1954-11-15 21:00:00 TS 14.2971 126.356 main 220 185 PPP______PPP__ WP181954 14.2850 126.285 150 5 14.2425 126.558 9 940 0 0 14.4076 126.393 6 145 923 14.2850 126.285 TC 150 14.2776 126.334 4 150 14.2850 126.285 150 923 330 8 305
1954314N11152 1954 90 WP MM SALLY 1954-11-16 00:00:00 TS 14.5333 126.033 940 tokyo main 185 175 OOO______OOO__ jtwc_wp WP181954 14.5000 126.000 150 5 14.5000 126.200 9 940 0 0 0 14.7000 126.000 6 145 921 14.5000 126.000 TC 150 14.5000 126.000 4 150 14.5000 126.000 150 921 300 8 311
1954314N11152 1954 90 WP MM SALLY 1954-11-16 03:00:00 TS 14.7924 125.769 main 181 170 PPP______PPP__ WP181954 14.7999 125.757 150 5 14.7499 125.900 9 940 0 0 14.8574 125.735 6 145 922 14.7999 125.757 TC 150 14.7475 125.709 4 150 14.7999 125.757 150 922 330 7 315
1954314N11152 1954 90 WP MM SALLY 1954-11-16 06:00:00 TS 15.0512 125.504 940 tokyo main 178 170 OOO______OPO__ jtwc_wp WP181954 15.1000 125.500 150 5 15.0000 125.600 9 940 0 0 0 15.0000 125.500 6 145 923 15.1000 125.500 TC 150 15.0070 125.422 4 150 15.1000 125.500 150 924 360 7 311
1954314N11152 1954 90 WP MM SALLY 1954-11-16 09:00:00 TS 15.2821 125.194 main 174 169 PPP______PPP__ WP181954 15.3149 125.180 150 5 15.2499 125.272 9 940 0 0 15.2349 125.230 6 145 923 15.3149 125.180 TC 150 15.2631 125.125 4 150 15.3149 125.180 150 925 330 8 305
1954314N11152 1954 90 WP MM SALLY 1954-11-16 12:00:00 TS 15.5000 124.833 940 tokyo main 176 176 OOO______OOO__ jtwc_wp WP181954 15.5000 124.800 150 5 15.5000 124.900 9 940 0 0 0 15.5000 124.900 6 145 924 15.5000 124.800 TC 150 15.5000 124.800 4 150 15.5000 124.800 150 926 300 9 300
1954314N11152 1954 90 WP MM SALLY 1954-11-16 15:00:00 TS 15.7244 124.386 main 190 190 PPP______PPP__ WP181954 15.7076 124.350 145 5 15.7651 124.435 9 935 0 0 15.7577 124.450 6 145 924 15.7076 124.350 TC 145 15.7011 124.380 4 150 15.7076 124.350 145 926 300 10 297
1954314N11152 1954 90 WP MM SALLY 1954-11-16 18:00:00 TS 15.9301 123.940 930 tokyo main 184 147 OOO______OPO__ jtwc_wp WP181954 15.9000 123.900 140 5 16.0000 124.000 9 930 0 0 0 16.0000 124.000 6 145 925 15.9000 123.900 TC 140 15.8807 123.940 4 150 15.9000 123.900 140 927 300 9 295
1954314N11152 1954 90 WP MM SALLY 1954-11-16 21:00:00 TS 16.0945 123.567 main 147 115 PPP______PPP__ WP181954 16.0500 123.497 145 5 16.1573 123.720 9 930 0 0 16.2149 123.662 6 145 926 16.0500 123.497 TC 145 16.0449 123.530 4 150 16.0500 123.497 145 927 300 7 297
1954314N11152 1954 90 WP MM SALLY 1954-11-17 00:00:00 TS 16.2500 123.283 930 tokyo main 108 84 OOO______OOO__ jtwc_wp WP181954 16.2000 123.200 150 5 16.3000 123.500 9 930 0 0 0 16.4000 123.400 6 145 927 16.2000 123.200 TC 150 16.2000 123.200 4 150 16.2000 123.200 150 927 300 6 308
1954314N11152 1954 90 WP MM SALLY 1954-11-17 03:00:00 TS 16.4458 123.100 main 84 62 PPP______PPP__ WP181954 16.4074 123.062 150 5 16.5150 123.235 9 930 0 0 16.5725 123.170 6 140 929 16.4074 123.062 TC 150 16.3648 123.009 4 150 16.4074 123.062 150 929 300 5 322
1954314N11152 1954 90 WP MM SALLY 1954-11-17 06:00:00 TS 16.6203 122.984 930 tokyo main 62 48 OOO______OPO__ jtwc_wp WP181954 16.6000 123.000 150 5 16.7000 123.000 9 930 0 0 0 16.7000 123.000 6 136 931 16.6000 123.000 TC 150 16.5220 122.902 4 150 16.6000 123.000 150 932 300 4 322
1954314N11152 1954 90 WP MM SALLY 1954-11-17 09:00:00 TS 16.7226 122.875 main 48 33 PPP______PPP__ WP181954 16.7150 122.900 150 5 16.7650 122.820 9 940 0 0 16.7575 122.885 6 131 936 16.7150 122.900 TC 150 16.6681 122.844 4 150 16.7150 122.900 150 940 300 3 313
1954314N11152 1954 90 WP MM SALLY 1954-11-17 12:00:00 TS 16.8000 122.783 950 tokyo main 33 21 OOO______OOO__ jtwc_wp WP181954 16.8000 122.800 150 5 16.8000 122.700 9 950 0 0 0 16.8000 122.800 6 126 941 16.8000 122.800 TC 150 16.8000 122.800 4 150 16.8000 122.800 150 948 300 3 312
1954314N11152 1954 90 WP MM SALLY 1954-11-17 15:00:00 TS 16.8940 122.678 main 21 10 PPP______PPP__ WP181954 16.9000 122.693 150 5 16.8850 122.628 9 955 0 0 16.8850 122.685 6 121 949 16.9000 122.693 TC 150 16.8940 122.677 4 143 16.9000 122.693 150 956 240 3 317
1954314N11152 1954 90 WP MM SALLY 1954-11-17 18:00:00 TS 16.9962 122.595 960 tokyo main 10 10 OOO______OPO__ jtwc_wp WP181954 17.0000 122.600 150 5 17.0000 122.600 9 960 0 0 0 17.0000 122.600 6 116 958 17.0000 122.600 TC 150 16.9774 122.568 4 137 17.0000 122.600 150 964 180 2 328
1954314N11152 1954 90 WP MM SALLY 1954-11-17 21:00:00 TS 17.0970 122.541 main 10 10 PPP______PPP__ WP181954 17.0775 122.528 137 5 17.1350 122.585 9 960 0 0 17.1425 122.577 6 111 961 17.0775 122.528 TC 137 17.0721 122.499 4 131 17.0775 122.528 137 971 180 2 346
1954314N11152 1954 90 WP MM SALLY 1954-11-18 00:00:00 TS 17.2333 122.533 960 tokyo main 10 10 OOO______OOO__ jtwc_wp WP181954 17.2000 122.500 125 4 17.3000 122.600 9 960 0 0 0 17.3000 122.600 6 106 964 17.2000 122.500 TC 125 17.2000 122.500 4 125 17.2000 122.500 125 979 180 3 4
1954314N11152 1954 90 WP MM SALLY 1954-11-18 03:00:00 TS 17.4387 122.544 main 15 15 PPP______PPP__ WP181954 17.4349 122.498 125 4 17.4999 122.605 9 965 0 0 17.4349 122.605 6 101 969 17.4349 122.498 TC 125 17.3928 122.559 4 125 17.4349 122.498 125 982 180 5 15
1954314N11152 1954 90 WP MM SALLY 1954-11-18 06:00:00 TS 17.6699 122.649 970 tokyo main 49 49 OOO______OPO__ jtwc_wp WP181954 17.7000 122.600 125 4 17.7000 122.700 9 970 0 0 0 17.6000 122.700 5 97 975 17.7000 122.600 TC 125 17.6194 122.693 4 125 17.7000 122.600 125 986 180 6 37
1954314N11152 1954 90 WP MM SALLY 1954-11-18 09:00:00 TS 17.8769 122.889 main 77 77 PPP______PPP__ WP181954 17.9074 122.840 125 4 17.8350 122.955 9 975 0 0 17.8425 122.955 5 92 979 17.9074 122.840 TC 125 17.8614 122.906 4 125 17.9074 122.840 125 983 180 7 53
1954314N11152 1954 90 WP MM SALLY 1954-11-18 12:00:00 TS 18.0833 123.233 980 tokyo main 97 97 OOO______OOO__ jtwc_wp WP181954 18.1000 123.200 125 4 18.0000 123.300 9 980 0 0 0 18.1000 123.300 5 87 983 18.1000 123.200 TC 125 18.1000 123.200 4 125 18.1000 123.200 125 981 180 8 58
1954314N11152 1954 90 WP MM SALLY 1954-11-18 15:00:00 TS 18.3045 123.616 main 137 137 PPP______PPP__ WP181954 18.3000 123.628 125 4 18.2998 123.620 9 980 0 0 18.3074 123.628 5 82 986 18.3000 123.628 TC 125 18.3197 123.567 4 125 18.3000 123.628 125 983 180 9 61
1954314N11152 1954 90 WP MM SALLY 1954-11-18 18:00:00 TS 18.5217 124.052 980 tokyo main 190 190 OOO______OPO__ jtwc_wp WP181954 18.5000 124.100 125 4 18.6000 124.000 9 980 0 0 0 18.5000 124.000 4 77 989 18.5000 124.100 TC 125 18.5304 124.010 4 125 18.5000 124.100 125 986 180 10 64
1954314N11152 1954 90 WP MM SALLY 1954-11-18 21:00:00 TS 18.7252 124.528 main 234 234 PPP______PPP__ WP181954 18.7150 124.572 125 4 18.7727 124.508 9 985 0 0 18.7075 124.442 4 72 991 18.7150 124.572 TC 125 18.7258 124.498 4 125 18.7150 124.572 125 988 180 10 67
1954314N11152 1954 90 WP MM SALLY 1954-11-19 00:00:00 TS 18.9000 124.983 990 tokyo main 289 289 OOO______OOO__ jtwc_wp WP181954 18.9000 125.000 125 4 18.9000 125.000 9 990 0 0 0 18.9000 124.900 4 68 993 18.9000 125.000 TC 125 18.9000 125.000 4 125 18.9000 125.000 125 990 180 8 67
1954314N11152 1954 90 WP MM SALLY 1954-11-19 03:00:00 TS 19.0321 125.307 main 323 323 PPP______PPP__ WP181954 19.0070 125.270 112 3 19.0571 125.300 9 990 0 0 19.0647 125.285 4 68 993 19.0070 125.270 TC 112 19.0500 125.448 4 112 19.0070 125.270 112 991 210 7 69
1954314N11152 1954 90 WP MM SALLY 1954-11-19 06:00:00 TS 19.1465 125.668 990 tokyo main 366 366 OOO______OPO__ jtwc_wp WP181954 19.1000 125.600 100 3 19.2000 125.600 9 990 0 0 0 19.2000 125.700 4 68 994 19.1000 125.600 TC 100 19.1790 125.906 4 100 19.1000 125.600 100 992 240 9 75
1954314N11152 1954 90 WP MM SALLY 1954-11-19 09:00:00 TS 19.2704 126.221 main 422 422 PPP______PPP__ WP181954 19.2429 126.212 87 2 19.3000 126.063 9 992 0 0 19.3001 126.243 4 68 994 19.2429 126.212 TC 87 19.2936 126.385 4 87 19.2429 126.212 87 992 210 11 77
1954314N11152 1954 90 WP MM SALLY 1954-11-19 12:00:00 TS 19.4000 126.833 995 tokyo main 486 486 OOO______OOO__ jtwc_wp WP181954 19.4000 126.900 75 1 19.4000 126.600 9 995 0 0 0 19.4000 126.800 4 68 995 19.4000 126.900 TC 75 19.4000 126.900 4 75 19.4000 126.900 75 993 180 11 76
1954314N11152 1954 90 WP MM SALLY 1954-11-19 15:00:00 TS 19.5470 127.369 main 550 550 PPP______PPP__ WP181954 19.5645 127.450 62 0 19.5425 127.150 9 997 0 0 19.5422 127.258 4 58 997 19.5645 127.450 TC 62 19.5034 127.458 4 62 19.5645 127.450 62 993 180 10 74
1954314N11152 1954 90 WP MM SALLY 1954-11-19 18:00:00 TS 19.6876 127.902 1000 tokyo main 606 606 OOO______OPO__ jtwc_wp WP181954 19.7000 128.000 50 0 19.7000 127.700 9 1000 0 0 0 19.7000 127.700 3 48 1000 19.7000 128.000 TC 50 19.6046 128.052 4 50 19.7000 128.000 50 994 180 10 78
1954314N11152 1954 90 WP MM SALLY 1954-11-19 21:00:00 TS 19.7611 128.437 main 659 659 PPP______PPP__ WP181954 19.7422 128.621 37 0 19.8036 128.111 9 1000 0 0 19.8037 128.096 3 48 1000 19.7422 128.621 TC 37 19.7035 128.670 4 37 19.7422 128.621 37 994 180 11 79
1954314N11152 1954 90 WP MM SALLY 1954-11-20 00:00:00 TS 19.8889 129.033 1000 tokyo main 723 723 OOO______OOO__ jtwc_wp WP181954 19.8000 129.300 25 -1 20.0000 128.700 9 1000 0 0 0 20.0000 128.700 3 48 1000 19.8000 129.300 TC 25 19.8000 129.300 1 25 19.8000 129.300 25 995 180 14 72
1954314N11152 1954 90 WP MM SALLY 1954-11-20 03:00:00 TS 20.2043 129.871 main 822 822 PPP______P_P__ WP181954 19.9657 130.034 25 -1 20.3833 129.752 9 1002 0 0 20.3832 129.745 3 43 1002 19.9657 130.034 TC 25 1 19.9657 130.034 25 995 150 20 65
1954314N11152 1954 90 WP MM SALLY 1954-11-20 06:00:00 TS 20.7091 130.945 1004 tokyo main 936 936 OOO______O_O__ jtwc_wp WP181954 20.2000 130.800 25 -1 20.9000 131.000 9 1004 0 0 0 20.9000 131.000 2 38 1004 20.2000 130.800 TC 25 1 20.2000 130.800 25 996 120 25 60
1954314N11152 1954 90 WP MM SALLY 1954-11-20 09:00:00 TS 21.4695 132.183 main 1071 1026 _PP___________ WP181954 -1 21.4617 132.151 9 1004 0 0 21.4773 132.215 2 38 1004 TC 1 26 58
1954314N11152 1954 90 WP MM SALLY 1954-11-20 12:00:00 TS 22.1000 133.350 1004 tokyo main 1029 996 _OO___________ -1 22.1000 133.300 9 1004 0 0 0 22.1000 133.400 2 38 1004 24 59
1954314N11152 1954 90 WP MM SALLY 1954-11-20 15:00:00 TS 22.7074 134.445 main 996 971 _PP___________ -1 22.7541 134.444 9 1004 0 0 22.6608 134.445 2 38 1004 24 57
1954314N11152 1954 90 WP MM SALLY 1954-11-20 18:00:00 TS 23.4000 135.550 1004 tokyo main 976 957 _OO___________ -1 23.5000 135.600 9 1004 0 0 0 23.3000 135.500 2 38 1004 26 54
1954314N11152 1954 90 WP MM SALLY 1954-11-20 21:00:00 TS 24.2258 136.757 main 962 947 _PP___________ -1 24.3691 136.786 9 1004 0 0 24.0825 136.729 2 33 1004 28 52
1954314N11152 1954 90 WP MM SALLY 1954-11-21 00:00:00 TS 25.1500 138.000 1004 tokyo main 939 884 _OO___________ -1 25.3000 138.000 9 1004 0 0 0 25.0000 138.000 1 29 1004 29 51
1954314N11152 1954 90 WP MM SALLY 1954-11-21 03:00:00 TS 26.0912 139.267 main 881 834 _PP___________ -1 26.1702 139.289 9 1003 0 0 26.0122 139.246 1 29 1003 29 48
1954314N11152 1954 90 WP MM SALLY 1954-11-21 06:00:00 TS 27.1000 140.450 1002 tokyo main 834 762 _OO___________ -1 27.1000 140.500 2 1002 0 0 0 27.1000 140.400 1 29 1002 29 43
1954314N11152 1954 90 WP MM SALLY 1954-11-21 09:00:00 TS 28.1804 141.452 main 758 674 _PP___________ -1 28.1603 141.509 2 1002 0 0 28.2006 141.395 1 29 1002 28 37
1954314N11152 1954 90 WP MM SALLY 1954-11-21 12:00:00 TS 29.3000 142.350 1002 tokyo main 667 _OO___________ -1 29.3000 142.400 2 1002 0 0 0 29.3000 142.300 1 29 1002 27 35

Digital Typhoon Data and Search

About IBTrACS Database

This database is a web-friendly format of International Best Track Archive for Climate Stewardship (IBTrACS), a global best track data archive curated by NOAA dating back to 1842.

Updated: 2021-12-03